^^
Datos históricos de la estación: Murcia-Puente Tocinos
Diario Informe para Julio 25, 2021 Unidades:  Métrico    Ingés   Ambas
Diario Semanal Mensual Anual
  Máxima: Mínima: Promedio:
Temperatura: 34.3 °C 23.5 °C 28.3 °C
Punto de rocio: 22.7 °C 8.3 °C 18.9 °C
Humedad: 84% 21.8% 60%
Velocidad viento: 23.3km/h 0km/h 8.3km/h
Racha viento: 41.8km/h - -
Viento- - Sur
Presión: 1008.8 hPa 1006.3 hPa -
Precipitación: 0.0 mm    
 
 
Tabla de datos para Julio 25, 2021
Hora Temperatura Punto de rocio Presión Viento Velocidad viento Racha viento Humedad Intensidad lluvia(por hora) Nubes
00:04 26.6 °C 22.3 °C 1007.5 hPa NNE 3.9 km/h 8 km/h 77.3% 0.0 mm
00:09 26.6 °C 22.4 °C 1007.5 hPa NNE 4.3 km/h 7.4 km/h 78% 0.0 mm
00:14 26.5 °C 22.3 °C 1007.5 hPa North 4.7 km/h 8.4 km/h 78% 0.0 mm
00:19 26.5 °C 22.4 °C 1007.5 hPa NNO 3.8 km/h 8 km/h 78.4% 0.0 mm
00:24 26.5 °C 22.6 °C 1007.5 hPa NNO 3.2 km/h 8 km/h 79% 0.0 mm
00:29 26.4 °C 22.5 °C 1007.5 hPa NNO 3.2 km/h 5.8 km/h 79% 0.0 mm
00:34 26.4 °C 22.6 °C 1007.5 hPa NNO 3.2 km/h 3.7 km/h 79.7% 0.0 mm
00:39 26.4 °C 22.6 °C 1007.5 hPa NNO 2.7 km/h 4.7 km/h 80% 0.0 mm
00:44 26.3 °C 22.5 °C 1007.5 hPa NNO 2.3 km/h 5.6 km/h 79.8% 0.0 mm
00:49 26.3 °C 22.6 °C 1007.5 hPa NNO 2.6 km/h 5.6 km/h 80% 0.0 mm
00:54 26.3 °C 22.6 °C 1007.6 hPa NNO 2.9 km/h 4.7 km/h 80% 0.0 mm
00:59 26.2 °C 22.6 °C 1007.6 hPa NNO 2.9 km/h 7.4 km/h 80.5% 0.0 mm
01:04 26.2 °C 22.7 °C 1007.6 hPa North 2.9 km/h 8 km/h 81% 0.0 mm
01:09 26.2 °C 22.7 °C 1007.6 hPa North 3.1 km/h 5.8 km/h 81% 0.0 mm
01:14 26.2 °C 22.6 °C 1007.6 hPa NNO 3.2 km/h 7.4 km/h 81% 0.0 mm
01:19 26.1 °C 22.6 °C 1007.6 hPa NNO 3.2 km/h 8 km/h 81% 0.0 mm
01:24 26.1 °C 22.6 °C 1007.6 hPa NNO 3.2 km/h 5.6 km/h 81% 0.0 mm
01:29 26.1 °C 22.6 °C 1007.5 hPa NNO 2.6 km/h 5 km/h 81% 0.0 mm
01:34 26.1 °C 22.7 °C 1007.5 hPa NO 2.3 km/h 7.4 km/h 81.6% 0.0 mm
01:39 26 °C 22.7 °C 1007.5 hPa NO 3.1 km/h 7.6 km/h 82% 0.0 mm
01:44 25.9 °C 22.6 °C 1007.4 hPa NO 3.9 km/h 7.4 km/h 82% 0.0 mm
01:49 25.9 °C 22.6 °C 1007.4 hPa NO 3.5 km/h 8 km/h 82% 0.0 mm
01:54 25.9 °C 22.6 °C 1007.4 hPa NO 3.2 km/h 5.8 km/h 82% 0.0 mm
01:59 25.8 °C 22.5 °C 1007.2 hPa NO 3.2 km/h 5.6 km/h 82% 0.0 mm
02:04 25.8 °C 22.5 °C 1007.2 hPa NO 3.2 km/h 4.8 km/h 82% 0.0 mm
02:09 25.8 °C 22.6 °C 1007.2 hPa NO 2.7 km/h 5.6 km/h 82.8% 0.0 mm
02:14 25.8 °C 22.7 °C 1007.1 hPa NO 2.3 km/h 4.7 km/h 83% 0.0 mm
02:19 25.7 °C 22.6 °C 1007.1 hPa NO 2.3 km/h 3.7 km/h 83% 0.0 mm
02:24 25.7 °C 22.6 °C 1007.1 hPa NNO 2.2 km/h 4.7 km/h 83% 0.0 mm
02:29 25.7 °C 22.6 °C 1007.0 hPa NNO 1.1 km/h 4.8 km/h 83% 0.0 mm
02:34 25.6 °C 22.5 °C 1007.0 hPa Calm   3.9 km/h 83% 0.0 mm
02:39 25.6 °C 22.6 °C 1007.0 hPa Calm   4.7 km/h 83.3% 0.0 mm
02:44 25.6 °C 22.7 °C 1006.9 hPa Calm   4.8 km/h 84% 0.0 mm
02:49 25.6 °C 22.7 °C 1006.9 hPa NNO 1.3 km/h 7.4 km/h 84% 0.0 mm
02:54 25.5 °C 22.6 °C 1006.9 hPa NNO 2.2 km/h 8 km/h 84% 0.0 mm
02:59 25.4 °C 22.5 °C 1006.9 hPa NNO 2.3 km/h 5.8 km/h 84% 0.0 mm
03:04 25.4 °C 22.5 °C 1006.9 hPa NO 2.2 km/h 6.4 km/h 83.8% 0.0 mm
03:09 25.4 °C 22.3 °C 1006.9 hPa Sur 2.6 km/h 6.4 km/h 83% 0.0 mm
03:14 25.4 °C 22.2 °C 1006.6 hPa Sur 2.9 km/h 7.4 km/h 82.5% 0.0 mm
03:19 25.5 °C 22.2 °C 1006.6 hPa SO 3.1 km/h 8 km/h 82% 0.0 mm
03:24 25.6 °C 22.2 °C 1006.8 hPa SSO 3.2 km/h 7.6 km/h 81.6% 0.0 mm
03:29 25.6 °C 22.1 °C 1006.8 hPa Sur 4.3 km/h 9.5 km/h 81% 0.0 mm
03:34 25.7 °C 21.8 °C 1006.8 hPa SSO 5 km/h 11.3 km/h 79.3% 0.0 mm
03:39 25.7 °C 21.5 °C 1006.8 hPa SO 6.1 km/h 11.3 km/h 77.9% 0.0 mm
03:44 25.8 °C 21.4 °C 1006.8 hPa SO 6.9 km/h 11.1 km/h 77% 0.0 mm
03:49 25.8 °C 21.5 °C 1006.8 hPa SO 6.7 km/h 11.3 km/h 76.8% 0.0 mm
03:54 25.9 °C 21.3 °C 1006.8 hPa Oeste 6.5 km/h 9.7 km/h 76% 0.0 mm
03:59 25.8 °C 21.3 °C 1006.6 hPa OSO 5.3 km/h 8 km/h 76% 0.0 mm
04:04 25.8 °C 21.3 °C 1006.6 hPa SO 4.6 km/h 8 km/h 76.5% 0.0 mm
04:09 25.7 °C 21.4 °C 1006.7 hPa OSO 4.6 km/h 8.4 km/h 77% 0.0 mm
04:14 25.6 °C 21.2 °C 1006.7 hPa OSO 4.7 km/h 8 km/h 77% 0.0 mm
04:19 25.4 °C 21.1 °C 1006.7 hPa SO 4.6 km/h 9.3 km/h 76.9% 0.0 mm
04:24 25.3 °C 20.8 °C 1006.7 hPa SSO 4.7 km/h 10 km/h 76% 0.0 mm
04:29 25.3 °C 20.6 °C 1006.7 hPa SSO 5.3 km/h 9.7 km/h 75.1% 0.0 mm
04:34 25.3 °C 20.6 °C 1006.7 hPa SSO 5.8 km/h 10 km/h 75% 0.0 mm
04:39 25.3 °C 20.5 °C 1006.7 hPa SO 6.4 km/h 9.7 km/h 74.9% 0.0 mm
04:44 25.3 °C 20.3 °C 1006.7 hPa SO 6.9 km/h 11.1 km/h 74% 0.0 mm
04:49 25.3 °C 20.3 °C 1006.7 hPa OSO 6.3 km/h 11.3 km/h 74% 0.0 mm
04:54 25.2 °C 20.1 °C 1006.7 hPa OSO 5.8 km/h 11.1 km/h 73.2% 0.0 mm
04:59 25.2 °C 20 °C 1006.6 hPa OSO 6.2 km/h 11.3 km/h 73% 0.0 mm
05:04 25.1 °C 19.9 °C 1006.6 hPa OSO 6.5 km/h 11.3 km/h 73% 0.0 mm
05:09 25 °C 19.8 °C 1006.6 hPa SO 6.1 km/h 9.7 km/h 73% 0.0 mm
05:14 24.9 °C 19.8 °C 1006.6 hPa SO 5.8 km/h 9.7 km/h 73% 0.0 mm
05:19 25 °C 19.8 °C 1006.6 hPa SO 5.1 km/h 8.4 km/h 73% 0.0 mm
05:24 25 °C 19.7 °C 1006.7 hPa SO 4.7 km/h 8 km/h 72.2% 0.0 mm
05:29 25 °C 19.7 °C 1006.7 hPa OSO 4.7 km/h 7.4 km/h 72% 0.0 mm
05:34 25 °C 19.7 °C 1006.7 hPa SO 4.7 km/h 8.4 km/h 72% 0.0 mm
05:39 25 °C 19.8 °C 1006.7 hPa SO 4.7 km/h 11.1 km/h 72.8% 0.0 mm
05:44 24.9 °C 19.7 °C 1006.7 hPa SO 4.7 km/h 11.3 km/h 73% 0.0 mm
05:49 24.9 °C 19.7 °C 1006.7 hPa SSO 4.8 km/h 8.4 km/h 73% 0.0 mm
05:54 24.9 °C 19.7 °C 1006.8 hPa Sur 5 km/h 10 km/h 72.9% 0.0 mm
05:59 24.5 °C 19.3 °C 1006.8 hPa SE 5 km/h 13 km/h 72.7% 0.0 mm
06:04 24 °C 19.1 °C 1006.8 hPa SSE 5 km/h 12.9 km/h 74.3% 0.0 mm
06:09 23.7 °C 19.2 °C 1006.8 hPa Sur 6.1 km/h 11.3 km/h 75.6% 0.0 mm
06:14 23.7 °C 19.3 °C 1006.7 hPa SSO 6.9 km/h 8 km/h 76.4% 0.0 mm
06:19 23.7 °C 19.5 °C 1006.7 hPa SO 4.9 km/h 8.4 km/h 77% 0.0 mm
06:24 23.8 °C 19.5 °C 1007.0 hPa SSO 3.2 km/h 8.4 km/h 76.5% 0.0 mm
06:29 24 °C 19.3 °C 1007.0 hPa SSO 4.3 km/h 10 km/h 75.1% 0.0 mm
06:34 24.1 °C 19.1 °C 1007.0 hPa SSO 5 km/h 9.7 km/h 73.9% 0.0 mm
06:39 24.1 °C 18.9 °C 1007.1 hPa SSO 5.5 km/h 9.7 km/h 72.8% 0.0 mm
06:44 24.1 °C 18.7 °C 1007.1 hPa Sur 5.8 km/h 8 km/h 71.8% 0.0 mm
06:49 24.1 °C 18.5 °C 1007.1 hPa Sur 4.6 km/h 8 km/h 71% 0.0 mm
06:54 24.1 °C 18.6 °C 1007.4 hPa Sur 3.9 km/h 3.9 km/h 71.6% 0.0 mm
06:59 23.9 °C 18.7 °C 1007.4 hPa NO 2.8 km/h 5.8 km/h 72.5% 0.0 mm
07:04 23.8 °C 18.7 °C 1007.4 hPa NNO 2.2 km/h 6.4 km/h 73.4% 0.0 mm
07:09 23.7 °C 18.7 °C 1007.6 hPa NNO 2.6 km/h 5.6 km/h 74% 0.0 mm
07:14 23.6 °C 18.7 °C 1007.6 hPa NNO 2.9 km/h 7.4 km/h 74% 0.0 mm
07:19 23.5 °C 18.8 °C 1007.6 hPa NNO 3.1 km/h 8 km/h 75% 0.0 mm
07:24 23.5 °C 18.8 °C 1007.7 hPa NNO 3.2 km/h 4.7 km/h 74.7% 0.0 mm
07:29 23.5 °C 18.6 °C 1007.7 hPa NNO 3 km/h 5.8 km/h 74.1% 0.0 mm
07:34 23.5 °C 18.6 °C 1007.7 hPa NNO 2.9 km/h 6.4 km/h 73.9% 0.0 mm
07:39 23.6 °C 18.4 °C 1007.8 hPa NNO 3.4 km/h 7.4 km/h 72.7% 0.0 mm
07:44 23.6 °C 18 °C 1007.8 hPa NNO 3.9 km/h 8 km/h 70.8% 0.0 mm
07:49 23.7 °C 16.2 °C 1007.8 hPa NNO 3.3 km/h 4.8 km/h 63.3% 0.0 mm
07:54 23.8 °C 15.3 °C 1008.0 hPa NNO 2.9 km/h 4.8 km/h 58.9% 0.0 mm
07:59 24.2 °C 15.6 °C 1008.0 hPa NNO 2.9 km/h 4.7 km/h 58.5% 0.0 mm
08:04 24.6 °C 15.8 °C 1008.0 hPa NNO 2.9 km/h 4.8 km/h 57.9% 0.0 mm
08:09 24.9 °C 15 °C 1008.1 hPa NNO 1.2 km/h 5.8 km/h 54.4% 0.0 mm
08:14 25.2 °C 14.3 °C 1008.1 hPa Calm   7.4 km/h 50.9% 0.0 mm
08:19 25.5 °C 15 °C 1008.1 hPa NNE 2.7 km/h 10 km/h 52.3% 0.0 mm
08:24 25.6 °C 15.3 °C 1008.1 hPa NNE 4.7 km/h 9.5 km/h 53% 0.0 mm
08:29 25.5 °C 16.3 °C 1008.1 hPa North 4.7 km/h 9.7 km/h 57% 0.0 mm
08:34 25.3 °C 17.3 °C 1008.1 hPa NO 4.7 km/h 9.7 km/h 61.5% 0.0 mm
08:39 25.1 °C 17.7 °C 1008.2 hPa NNO 4.7 km/h 9.7 km/h 63.6% 0.0 mm
08:44 24.9 °C 18 °C 1008.2 hPa North 4.7 km/h 9.7 km/h 65.6% 0.0 mm
08:49 24.9 °C 18.2 °C 1008.2 hPa North 4.8 km/h 11.1 km/h 66.2% 0.0 mm
08:54 24.8 °C 18.1 °C 1008.3 hPa NNE 5 km/h 11.3 km/h 66.4% 0.0 mm
08:59 24.8 °C 18.1 °C 1008.3 hPa NNE 5 km/h 9.7 km/h 66.3% 0.0 mm
09:04 25 °C 18.1 °C 1008.3 hPa NNE 5 km/h 10.3 km/h 65.4% 0.0 mm
09:09 25 °C 18.2 °C 1008.5 hPa NE 5.8 km/h 11.3 km/h 65.8% 0.0 mm
09:14 25.1 °C 18.3 °C 1008.5 hPa NE 6.4 km/h 7.6 km/h 66% 0.0 mm
09:19 25.4 °C 18.6 °C 1008.5 hPa NE 5.6 km/h 9.5 km/h 66% 0.0 mm
09:24 25.7 °C 18.9 °C 1008.6 hPa NNE 5 km/h 9.7 km/h 66% 0.0 mm
09:29 26 °C 19 °C 1008.6 hPa NE 5 km/h 8 km/h 65.3% 0.0 mm
09:34 26.2 °C 19 °C 1008.6 hPa NNE 5 km/h 10 km/h 64.6% 0.0 mm
09:39 26.3 °C 18.8 °C 1008.7 hPa NE 5.4 km/h 11.1 km/h 63.3% 0.0 mm
09:44 26.4 °C 18.4 °C 1008.7 hPa North 5.8 km/h 11.3 km/h 61.4% 0.0 mm
09:49 26.4 °C 17.2 °C 1008.7 hPa NNO 6.2 km/h 9.7 km/h 57.1% 0.0 mm
09:54 26.8 °C 16.9 °C 1008.7 hPa North 6.5 km/h 9.7 km/h 55% 0.0 mm
09:59 27.2 °C 16 °C 1008.7 hPa North 5.6 km/h 9.7 km/h 50.6% 0.0 mm
10:04 27.6 °C 15.8 °C 1008.7 hPa NNO 5 km/h 10 km/h 48.7% 0.0 mm
10:09 27.8 °C 13.9 °C 1008.7 hPa NNO 5.5 km/h 10 km/h 42.7% 0.0 mm
10:14 28 °C 14.1 °C 1008.6 hPa North 5.8 km/h 10 km/h 42.5% 0.0 mm
10:19 28.3 °C 14.4 °C 1008.6 hPa NNO 5.8 km/h 9.7 km/h 42.7% 0.0 mm
10:24 28.4 °C 14.4 °C 1008.6 hPa North 5.8 km/h 9.7 km/h 42.6% 0.0 mm
10:29 28.7 °C 14.1 °C 1008.6 hPa NNE 5.3 km/h 9.7 km/h 41% 0.0 mm
10:34 28.8 °C 14 °C 1008.6 hPa NO 5 km/h 8 km/h 40.2% 0.0 mm
10:39 28.9 °C 13.8 °C 1008.6 hPa NO 4.3 km/h 8 km/h 39.4% 0.0 mm
10:44 29.3 °C 13.8 °C 1008.6 hPa NE 3.9 km/h 5.8 km/h 38.9% 0.0 mm
10:49 29.7 °C 13.9 °C 1008.6 hPa NE 3.3 km/h 6.4 km/h 38.1% 0.0 mm
10:54 30.1 °C 13.2 °C 1008.6 hPa NO 2.9 km/h 7.4 km/h 35.6% 0.0 mm
10:59 30.1 °C 12.5 °C 1008.5 hPa Oeste 3.1 km/h 8 km/h 33.9% 0.0 mm
11:04 30.1 °C 11.8 °C 1008.5 hPa NO 3.2 km/h 8 km/h 32.5% 0.0 mm
11:09 30.2 °C 12 °C 1008.5 hPa OSO 3.2 km/h 8.4 km/h 32.7% 0.0 mm
11:14 30.3 °C 11.3 °C 1008.5 hPa Sur 3.2 km/h 8 km/h 31% 0.0 mm
11:19 30.5 °C 11 °C 1008.5 hPa ESE 4 km/h 8.4 km/h 30.2% 0.0 mm
11:24 30.7 °C 10.8 °C 1008.5 hPa SSO 4.7 km/h 9.3 km/h 29.3% 0.0 mm
11:29 30.8 °C 10.7 °C 1008.4 hPa SO 4.6 km/h 12.2 km/h 29% 0.0 mm
11:34 30.8 °C 10.1 °C 1008.4 hPa SSE 4.7 km/h 13 km/h 27.9% 0.0 mm
11:39 30.9 °C 9.8 °C 1008.5 hPa Este 5.7 km/h 12.9 km/h 27.2% 0.0 mm
11:44 31.2 °C 10.1 °C 1008.5 hPa ENE 6.5 km/h 11.3 km/h 27.2% 0.0 mm
11:49 31.5 °C 10.2 °C 1008.5 hPa SSE 5.7 km/h 11.1 km/h 27% 0.0 mm
11:54 31.7 °C 10.4 °C 1008.5 hPa OSO 5 km/h 11.3 km/h 27% 0.0 mm
11:59 31.9 °C 9.9 °C 1008.3 hPa Oeste 4.8 km/h 9.7 km/h 25.8% 0.0 mm
12:04 32 °C 9.7 °C 1008.3 hPa SO 4.6 km/h 9.7 km/h 25.2% 0.0 mm
12:09 32 °C 8.9 °C 1008.3 hPa OSO 5.3 km/h 11.9 km/h 24% 0.0 mm
12:14 32 °C 8.9 °C 1008.3 hPa SSE 5.8 km/h 9.3 km/h 24% 0.0 mm
12:19 32.3 °C 9.7 °C 1008.3 hPa NE 5.3 km/h 9.7 km/h 25% 0.0 mm
12:24 32.6 °C 9 °C 1008.3 hPa ONO 5 km/h 11.1 km/h 23.4% 0.0 mm
12:29 32.7 °C 8.8 °C 1008.2 hPa NO 4.8 km/h 11.3 km/h 23% 0.0 mm
12:34 32.7 °C 8.7 °C 1008.2 hPa Oeste 4.7 km/h 11.1 km/h 22.8% 0.0 mm
12:39 32.8 °C 8.3 °C 1008.2 hPa OSO 4.7 km/h 11.3 km/h 22% 0.0 mm
12:44 32.9 °C 8.4 °C 1008.1 hPa OSO 4.7 km/h 11.3 km/h 22.1% 0.0 mm
12:49 33.2 °C 8.6 °C 1008.1 hPa OSO 4.6 km/h 9.7 km/h 22% 0.0 mm
12:54 33.4 °C 8.9 °C 1008.1 hPa SO 4.7 km/h 9.7 km/h 22.2% 0.0 mm
12:59 33.3 °C 9.2 °C 1008.0 hPa ONO 4.9 km/h 9.7 km/h 22.7% 0.0 mm
13:04 33.3 °C 9.6 °C 1008.0 hPa NNO 5 km/h 9.7 km/h 23.4% 0.0 mm
13:09 33.6 °C 10.1 °C 1008.0 hPa ONO 4.3 km/h 11.1 km/h 23.8% 0.0 mm
13:14 33.8 °C 9.7 °C 1007.9 hPa Oeste 3.9 km/h 13 km/h 23% 0.0 mm
13:19 33.8 °C 9.8 °C 1007.9 hPa OSO 5.6 km/h 11.1 km/h 23% 0.0 mm
13:24 33.8 °C 9.8 °C 1007.9 hPa Oeste 6.9 km/h 11.3 km/h 23% 0.0 mm
13:29 34 °C 9.8 °C 1007.7 hPa NNE 5.3 km/h 9.5 km/h 22.8% 0.0 mm
13:34 34.2 °C 9.3 °C 1007.7 hPa Este 3.9 km/h 15.6 km/h 21.9% 0.0 mm
13:39 34.1 °C 9.7 °C 1007.7 hPa NE 5 km/h 16.1 km/h 22.5% 0.0 mm
13:44 34.2 °C 9.7 °C 1007.6 hPa ESE 5.8 km/h 9.5 km/h 22.4% 0.0 mm
13:49 34.3 °C 9.5 °C 1007.6 hPa SE 5.3 km/h 13 km/h 22% 0.0 mm
13:54 34.3 °C 9.4 °C 1007.6 hPa SSE 5 km/h 13 km/h 21.8% 0.0 mm
13:59 34.2 °C 10.6 °C 1007.5 hPa SO 6.2 km/h 12.9 km/h 23.8% 0.0 mm
14:04 34.3 °C 16.1 °C 1007.5 hPa Este 6.9 km/h 22.2 km/h 34.1% 0.0 mm
14:09 33.8 °C 19.4 °C 1007.5 hPa SE 7.8 km/h 22.5 km/h 42.9% 0.0 mm
14:14 33.6 °C 19.9 °C 1007.3 hPa ESE 8.4 km/h 28.2 km/h 44.6% 0.0 mm
14:19 33.4 °C 19.9 °C 1007.3 hPa ESE 11 km/h 27.8 km/h 45.3% 0.0 mm
14:24 33 °C 20.2 °C 1007.3 hPa ESE 13 km/h 27.8 km/h 47% 0.0 mm
14:29 32.8 °C 20 °C 1007.2 hPa ESE 16 km/h 27.4 km/h 47% 0.0 mm
14:34 32.9 °C 19.9 °C 1007.2 hPa ESE 18 km/h 24.1 km/h 46.6% 0.0 mm
14:39 32.9 °C 20.2 °C 1007.2 hPa ESE 16.8 km/h 25.9 km/h 47.3% 0.0 mm
14:44 33 °C 20.5 °C 1007.2 hPa ESE 15.6 km/h 29.6 km/h 48% 0.0 mm
14:49 33.1 °C 20.6 °C 1007.2 hPa ESE 15.6 km/h 29 km/h 48% 0.0 mm
14:54 32.8 °C 20.6 °C 1007.2 hPa SE 15.6 km/h 35.2 km/h 48.8% 0.0 mm
14:59 32.7 °C 20.8 °C 1007.1 hPa SE 17.8 km/h 35.4 km/h 49.6% 0.0 mm
15:04 32.8 °C 20.8 °C 1007.1 hPa SE 19 km/h 35.4 km/h 49.3% 0.0 mm
15:09 32.9 °C 20.2 °C 1007.1 hPa SE 17.3 km/h 27.8 km/h 47.2% 0.0 mm
15:14 33.1 °C 20.3 °C 1007.0 hPa SE 16.1 km/h 27.8 km/h 47% 0.0 mm
15:19 33.2 °C 20.2 °C 1007.0 hPa ESE 14.9 km/h 27.4 km/h 46.6% 0.0 mm
15:24 33.2 °C 19.9 °C 1007.0 hPa ESE 14 km/h 26.2 km/h 45.8% 0.0 mm
15:29 33.3 °C 20.4 °C 1006.9 hPa ESE 14.9 km/h 29.6 km/h 46.9% 0.0 mm
15:34 33.2 °C 20.5 °C 1006.9 hPa ESE 15.6 km/h 33.5 km/h 47.7% 0.0 mm
15:39 33 °C 21 °C 1006.9 hPa ESE 17.5 km/h 31.5 km/h 49.3% 0.0 mm
15:44 32.8 °C 21 °C 1006.9 hPa ESE 19 km/h 33.3 km/h 49.9% 0.0 mm
15:49 32.6 °C 21 °C 1006.9 hPa ESE 18.6 km/h 34.3 km/h 50.6% 0.0 mm
15:54 32.5 °C 21.1 °C 1006.9 hPa ESE 18.3 km/h 34.3 km/h 51.3% 0.0 mm
15:59 32.5 °C 21.1 °C 1006.8 hPa ESE 18.4 km/h 33.8 km/h 51% 0.0 mm
16:04 32.3 °C 21.1 °C 1006.8 hPa ESE 18.4 km/h 39.6 km/h 51.8% 0.0 mm
16:09 32 °C 20.6 °C 1006.8 hPa ESE 21 km/h 40.2 km/h 51.2% 0.0 mm
16:14 32 °C 20.9 °C 1006.8 hPa ESE 23.3 km/h 38.6 km/h 52% 0.0 mm
16:19 31.8 °C 20.8 °C 1006.8 hPa ESE 22.9 km/h 37 km/h 52.3% 0.0 mm
16:24 31.9 °C 21 °C 1006.8 hPa ESE 22.5 km/h 35.4 km/h 52.8% 0.0 mm
16:29 32.2 °C 21.2 °C 1006.7 hPa ESE 20.2 km/h 41.2 km/h 52.6% 0.0 mm
16:34 32 °C 21.2 °C 1006.7 hPa ESE 18.4 km/h 41.8 km/h 52.9% 0.0 mm
16:39 31.8 °C 21.3 °C 1006.7 hPa ESE 19.3 km/h 36.2 km/h 53.8% 0.0 mm
16:44 31.5 °C 21.3 °C 1006.7 hPa Este 20.1 km/h 37 km/h 54.6% 0.0 mm
16:49 31.3 °C 21.2 °C 1006.7 hPa ESE 21 km/h 33.8 km/h 54.9% 0.0 mm
16:54 31.2 °C 21.1 °C 1006.7 hPa ESE 21.7 km/h 33.8 km/h 54.8% 0.0 mm
16:59 31.4 °C 21 °C 1006.6 hPa ESE 21.7 km/h 33.8 km/h 54% 0.0 mm
17:04 31.6 °C 21 °C 1006.6 hPa ESE 21.7 km/h 32.2 km/h 53.6% 0.0 mm
17:09 31.6 °C 20.7 °C 1006.6 hPa ESE 18.8 km/h 29.6 km/h 52.4% 0.0 mm
17:14 31.6 °C 20.7 °C 1006.5 hPa ESE 16.4 km/h 31.7 km/h 52.7% 0.0 mm
17:19 31.5 °C 20.8 °C 1006.5 hPa ESE 17.6 km/h 32.2 km/h 53% 0.0 mm
17:24 31.6 °C 20.7 °C 1006.6 hPa ESE 18.4 km/h 29.8 km/h 52.6% 0.0 mm
17:29 31.5 °C 20.7 °C 1006.6 hPa ESE 17.7 km/h 30.6 km/h 52.9% 0.0 mm
17:34 31.6 °C 20.8 °C 1006.6 hPa ESE 17.2 km/h 29 km/h 53% 0.0 mm
17:39 31.7 °C 20.5 °C 1006.6 hPa SE 15.2 km/h 25.9 km/h 51.7% 0.0 mm
17:44 31.7 °C 20.4 °C 1006.6 hPa ESE 13.7 km/h 25.9 km/h 51.3% 0.0 mm
17:49 31.6 °C 20.3 °C 1006.6 hPa ESE 15.1 km/h 27.8 km/h 51.3% 0.0 mm
17:54 31.5 °C 20.5 °C 1006.8 hPa ESE 16.1 km/h 27.8 km/h 52% 0.0 mm
17:59 31.4 °C 20.3 °C 1006.8 hPa ESE 16.1 km/h 29.6 km/h 52% 0.0 mm
18:04 31.6 °C 20.3 °C 1006.8 hPa ESE 16.1 km/h 29 km/h 51.4% 0.0 mm
18:09 31.5 °C 20.1 °C 1006.8 hPa ESE 14.7 km/h 27.8 km/h 51% 0.0 mm
18:14 31.3 °C 20 °C 1006.6 hPa ESE 13.7 km/h 29.8 km/h 51% 0.0 mm
18:19 31.2 °C 19.9 °C 1006.6 hPa ESE 15.1 km/h 30.6 km/h 51.1% 0.0 mm
18:24 31.2 °C 20 °C 1006.6 hPa ESE 16.1 km/h 29.6 km/h 51.5% 0.0 mm
18:29 31.2 °C 20.1 °C 1006.6 hPa ESE 15.8 km/h 29 km/h 51.7% 0.0 mm
18:34 31.3 °C 20.2 °C 1006.6 hPa SE 15.6 km/h 25.9 km/h 51.8% 0.0 mm
18:39 31.1 °C 19.9 °C 1006.6 hPa ESE 14.7 km/h 27.8 km/h 51.5% 0.0 mm
18:44 31.1 °C 20.1 °C 1006.6 hPa SE 14 km/h 27.4 km/h 52% 0.0 mm
18:49 31 °C 20 °C 1006.6 hPa SE 14.9 km/h 22.2 km/h 52% 0.0 mm
18:54 31 °C 20 °C 1006.6 hPa ESE 15.6 km/h 27.8 km/h 52.1% 0.0 mm
18:59 30.9 °C 20.2 °C 1006.4 hPa ESE 15.1 km/h 29.6 km/h 53% 0.0 mm
19:04 30.8 °C 20.2 °C 1006.4 hPa ESE 14.8 km/h 29 km/h 53.2% 0.0 mm
19:09 30.7 °C 20.3 °C 1006.4 hPa ESE 15.6 km/h 29.6 km/h 54% 0.0 mm
19:14 30.7 °C 20.3 °C 1006.3 hPa ESE 16.1 km/h 29 km/h 53.9% 0.0 mm
19:19 30.6 °C 20.3 °C 1006.3 hPa ESE 15.8 km/h 25.7 km/h 54% 0.0 mm
19:24 30.5 °C 20.3 °C 1006.3 hPa ESE 15.6 km/h 24.1 km/h 54.6% 0.0 mm
19:29 30.4 °C 20.4 °C 1006.3 hPa ESE 15.9 km/h 24.1 km/h 55% 0.0 mm
19:34 30.3 °C 20.5 °C 1006.3 hPa ESE 16.1 km/h 25.9 km/h 56% 0.0 mm
19:39 30.2 °C 20.4 °C 1006.4 hPa ESE 16.1 km/h 25.9 km/h 56% 0.0 mm
19:44 30 °C 20.6 °C 1006.4 hPa ESE 16.1 km/h 25.7 km/h 56.9% 0.0 mm
19:49 30.1 °C 20.6 °C 1006.4 hPa Este 14.9 km/h 25.9 km/h 57% 0.0 mm
19:54 29.9 °C 20.5 °C 1006.6 hPa ESE 14 km/h 25.7 km/h 57.1% 0.0 mm
19:59 29.8 °C 20.7 °C 1006.6 hPa ESE 14 km/h 24.1 km/h 58% 0.0 mm
20:04 29.8 °C 20.6 °C 1006.6 hPa ESE 14 km/h 24.1 km/h 57.8% 0.0 mm
20:09 29.7 °C 20.8 °C 1006.6 hPa ESE 13.8 km/h 22.5 km/h 58.8% 0.0 mm
20:14 29.4 °C 20.7 °C 1006.6 hPa ESE 13.7 km/h 22.2 km/h 59.6% 0.0 mm
20:19 29.3 °C 20.7 °C 1006.6 hPa ESE 14.8 km/h 25.9 km/h 60% 0.0 mm
20:24 29.3 °C 20.7 °C 1006.8 hPa Este 15.6 km/h 25.7 km/h 60% 0.0 mm
20:29 29.3 °C 21 °C 1006.8 hPa ENE 12.4 km/h 18.5 km/h 60.9% 0.0 mm
20:34 29.2 °C 21 °C 1006.8 hPa ENE 10 km/h 18.5 km/h 61.4% 0.0 mm
20:39 29 °C 21 °C 1007.0 hPa ENE 10.1 km/h 19.3 km/h 62% 0.0 mm
20:44 28.9 °C 20.9 °C 1007.0 hPa NE 10.3 km/h 19.8 km/h 62.3% 0.0 mm
20:49 28.7 °C 21.1 °C 1007.0 hPa NE 10.3 km/h 22 km/h 63.4% 0.0 mm
20:54 28.5 °C 21.3 °C 1007.2 hPa NE 10.3 km/h 28.2 km/h 65% 0.0 mm
20:59 28.2 °C 21.3 °C 1007.2 hPa NE 12.7 km/h 27.4 km/h 66.4% 0.0 mm
21:04 27.9 °C 21.4 °C 1007.2 hPa NE 14 km/h 25.9 km/h 67.7% 0.0 mm
21:09 27.8 °C 21.5 °C 1007.3 hPa NE 15.3 km/h 25.7 km/h 68.6% 0.0 mm
21:14 27.7 °C 21.5 °C 1007.3 hPa NE 16.4 km/h 20.9 km/h 69% 0.0 mm
21:19 27.6 °C 21.6 °C 1007.3 hPa NE 14.4 km/h 20.9 km/h 70% 0.0 mm
21:24 27.5 °C 21.5 °C 1007.4 hPa NE 13 km/h 18.5 km/h 70% 0.0 mm
21:29 27.4 °C 21.3 °C 1007.4 hPa ENE 11.4 km/h 19.3 km/h 69.4% 0.0 mm
21:34 27.4 °C 21 °C 1007.4 hPa NE 10.3 km/h 19.3 km/h 68.1% 0.0 mm
21:39 27.3 °C 20.9 °C 1007.6 hPa NE 10.1 km/h 16.1 km/h 67.9% 0.0 mm
21:44 27.3 °C 20.9 °C 1007.6 hPa NE 10 km/h 20.9 km/h 68.3% 0.0 mm
21:49 27.2 °C 21.3 °C 1007.6 hPa NE 10.6 km/h 20.4 km/h 69.9% 0.0 mm
21:54 27.1 °C 21.2 °C 1007.8 hPa NE 11.1 km/h 17.7 km/h 70% 0.0 mm
21:59 27.1 °C 21.1 °C 1007.8 hPa ENE 10.1 km/h 11.1 km/h 69.6% 0.0 mm
22:04 27.1 °C 20.9 °C 1007.8 hPa NE 9.5 km/h 11.3 km/h 69% 0.0 mm
22:09 27.1 °C 20.9 °C 1007.9 hPa NE 7.8 km/h 11.3 km/h 69% 0.0 mm
22:14 27.1 °C 20.9 °C 1007.9 hPa ENE 6.5 km/h 11.3 km/h 69% 0.0 mm
22:19 27.1 °C 20.9 °C 1007.9 hPa ESE 6.7 km/h 11.1 km/h 69% 0.0 mm
22:24 27.1 °C 21.2 °C 1008.2 hPa Este 6.9 km/h 11.9 km/h 69.9% 0.0 mm
22:29 27 °C 21.1 °C 1008.2 hPa NE 6.9 km/h 11.3 km/h 70% 0.0 mm
22:34 26.9 °C 21.2 °C 1008.2 hPa NNE 6.9 km/h 13.7 km/h 71.1% 0.0 mm
22:39 26.8 °C 21.3 °C 1008.3 hPa NE 6.9 km/h 14.5 km/h 72% 0.0 mm
22:44 26.7 °C 21.3 °C 1008.3 hPa NE 6.9 km/h 11.9 km/h 72.5% 0.0 mm
22:49 26.6 °C 21.6 °C 1008.3 hPa NE 6.9 km/h 13.7 km/h 74% 0.0 mm
22:54 26.5 °C 21.7 °C 1008.4 hPa NNE 6.9 km/h 14.8 km/h 75.1% 0.0 mm
22:59 26.3 °C 21.8 °C 1008.4 hPa NE 8 km/h 14.5 km/h 76% 0.0 mm
23:04 26.2 °C 21.8 °C 1008.4 hPa NE 8.7 km/h 14.8 km/h 76.6% 0.0 mm
23:09 26.1 °C 21.9 °C 1008.5 hPa NE 8.7 km/h 14.8 km/h 77.5% 0.0 mm
23:14 26.1 °C 21.9 °C 1008.5 hPa NNE 8.7 km/h 14.5 km/h 78% 0.0 mm
23:19 26 °C 22 °C 1008.5 hPa NNE 8.1 km/h 15.6 km/h 78.6% 0.0 mm
23:24 25.9 °C 22 °C 1008.6 hPa NNE 7.6 km/h 14.8 km/h 79% 0.0 mm
23:29 25.8 °C 22 °C 1008.6 hPa NNE 8.3 km/h 12.9 km/h 79.3% 0.0 mm
23:34 25.8 °C 22.1 °C 1008.6 hPa NNE 8.7 km/h 13 km/h 80% 0.0 mm
23:39 25.7 °C 22 °C 1008.8 hPa NNE 8.5 km/h 13 km/h 80% 0.0 mm
23:44 25.6 °C 22.1 °C 1008.8 hPa NNE 8.4 km/h 13 km/h 80.7% 0.0 mm
23:49 25.6 °C 22.1 °C 1008.8 hPa NNE 8.4 km/h 11.1 km/h 81% 0.0 mm
23:54 25.5 °C 22 °C 1008.8 hPa NNE 8.4 km/h 13 km/h 81% 0.0 mm
23:59 25.4 °C 22.1 °C 1008.8 hPa NNE 7.5 km/h 12.9 km/h 81.7% 0.0 mm
Murcia-Puente Tocinos, España
Compliments of Weather Underground - 3 mb

La estación de MeteoMurcia.com, publica sus datos en los siguientes proyectos:

Weather Underground PWS IMURCIAP2 Meteoclimatic www.awekas.at

W3Counter
Web Analytics